Archival Weather

Ambodedjo

Ambodedjo, Mali (GAMB)

Report from: Wednesday, December 6, 2023 4:00 PM GMT
Current time: Friday, February 23, 2024 8:18 PM GMT

Current weather – Weather history – Daily summaries
Weather forecast

Temperature35.0°C (95.0°F)
Heat index32.6°C (90.7°F)
Dew point5.0°C (41.0°F)
Winds 8 kts (4.1 m/s, 9.2 mph) North (360°)
Clouds Sky clear
Altimeter29.85 in.Hg (1011 mB)
Relative humidity16 %
Density altitude2,476 ft. (755 m)
Remarks Ceiling and visibility OK
Flight conditions Visual Meteorological Conditions
Raw dataGAMB 061600Z 36008KT CAVOK 35/05 Q1011
An error has occurred. This application may no longer respond until reloaded. Reload 🗙